Portada
METAR-TAF:

METAR-TAF

Aeropuertos :

Aeropuerto de Pau-Pirineos

Pau, Francia

latitud: 43-23N, longitud: 000-25W, altitud: 188 m

Observación

El informe se hizo hace 22 minutos, a las 03:00 UTC
Viento 4 kt del sureste
Temperatura 3°C
Humedad 100%
Presión 1020 hPa
Visibilidad: 6000 m

METAR: LFBP 240300Z AUTO 13004KT 6000 NSC 03/03 Q1020 TEMPO 0800 BCFG VV///

Hora: 04:22 (03:22 UTC)

Pronóstico

El informe se hizo hace 4 horas y 22 minutos, a las 23:00 UTC
Pronóstico válido del 24 a las 00 UTC al 24 a las 24 UTC
Viento 3 kt con dirección variable
Visibilidad 10 km o más
sin nubes por debajo de 1500 m y sin presencia de cumulonimbus.
Temporalmente
del 24 a las 00 UTC al 24 a las 08 UTC
Visibilidad: 3000 m
neblina
Probabilidad 30%
del 24 a las 00 UTC al 24 a las 08 UTC
Visibilidad: 0800 m
niebla en bancos

TAF: LFBP 232300Z 2400/2424 VRB03KT CAVOK TEMPO 2400/2408 3000 BR NSC PROB30 2400/2408 0800 BCFG VV///

Observaciones y pronósticos meteorológicos de más de 4000 aeropuertos (mensajes METAR y TAF).

Los puntos amarillos y rojos representan las estaciones disponibles.

Ponga el ratón en el punto deseado para ver el nombre de la estación.

Haga clic para ver las observaciones y los pronósticos meteorológicos.

Para cambiar el mapa : haga clic en los botones verdes con una cruz de color negro para hacer un zoom, en el botón verde con un guión para alejar o en las flechas verdes para mapas adyacentes.


METAR-TAF: